Rensselaer Falls, New York
Current Conditions -  °F | °C
As of 4:03 PM on Friday 19 Dec 2014 (Local Time) from KMSS Reporting Station
Broken Clouds Broken Clouds  
Wind Chill: 11°   Ceiling: 2000
Heat Index: 20°   Visibility: 10mi
Dew Point: 12°   Wind: 7mph
Humidity: 71%   Direction: 240°WSW
Pressure: 30.19"   Gusts: NA
Location:  44.59°N, 75.32°W
Report Text: KMSS 192103Z AUTO 24006KT 10SM BKN020 M07/M11 A3019 RMK AO2 T10671111
Loading
Personal Weather Stations






























Interactive Weather Map New forecast layout! Learn more

10-Day Weather Forecast

Advertisements
Track Severe Weather on mobile